»·PEaware :: JBU180 KSAN-KLAS

JBU180 :: KSAN-KLAS

FLIGHT INFORMATION

Flight Status: Arrived
Operator:
JetBlue Airways
More flights by this operator :: More flights under this callsign
Pilot: Etienne B. (28927)
Aircraft: AIRBUS A320
(A320)
More flights by this aircraft type
Origin: KSAN San Diego Intl-Lindbergh
United States
Destination: KLAS McCarran Intl
United States
More flights between these airports :: More routes between these airports
Route: PADRZ2 CHKNN SEBBY YELAH MISEN KEPEC6
File this flight plan on PilotEdge
Remarks: RMK / SIMBRIEF
Altitude:
(Current/Filed)
33,000ft
Speed:
(Current/Filed)
461kts
Departed: 09-May-20 05:35 PM
Arrived: 09-May-20 06:30 PM
Distance/Time
Traveled:
225nm/0:54
Distance/Time
To Go:
Arrived

Flight Plot

Page will automatically refresh every two minutes.

Flight plan parsing failed; only flown route is shown


Map Options




Map Legend


Flown Route
Filed Route
Departure Airport
Arrival Airport
Navaid (VOR, NDB)
Fix

Horizontal Profiles

Position Reports

Time Latitude Longitude Heading Altitude Ground
Speed
09-May-20 17:09 32.734202 -117.203367 266 26ft 0kts
09-May-20 17:10 32.734202 -117.203367 266 26ft 0kts
09-May-20 17:11 32.734202 -117.203367 266 26ft 0kts
09-May-20 17:12 32.734202 -117.203366 266 26ft 0kts
09-May-20 17:13 32.734202 -117.203366 266 26ft 0kts
09-May-20 17:14 32.734202 -117.203366 266 26ft 0kts
09-May-20 17:15 32.734202 -117.203366 266 26ft 0kts
09-May-20 17:16 32.734202 -117.203366 266 26ft 0kts
09-May-20 17:17 32.734202 -117.203366 266 26ft 0kts
09-May-20 17:18 32.734202 -117.203366 266 26ft 0kts
09-May-20 17:19 32.734202 -117.203366 266 26ft 0kts
09-May-20 17:20 32.734202 -117.203366 266 26ft 0kts
09-May-20 17:21 32.734202 -117.203366 266 26ft 0kts
09-May-20 17:22 32.734202 -117.203366 266 26ft 0kts
09-May-20 17:23 32.734202 -117.203366 266 26ft 0kts
09-May-20 17:24 32.733934 -117.202863 341 26ft 2kts
09-May-20 17:25 32.733663 -117.202851 16 26ft 0kts
09-May-20 17:26 32.733727 -117.202829 16 26ft 2kts
09-May-20 17:27 32.735357 -117.202221 44 26ft 5kts
09-May-20 17:28 32.734876 -117.199361 106 26ft 11kts
09-May-20 17:29 32.733677 -117.194452 106 26ft 17kts
09-May-20 17:30 32.732337 -117.188907 105 26ft 17kts
09-May-20 17:31 32.730739 -117.182304 106 26ft 22kts
09-May-20 17:32 32.729423 -117.177261 37 26ft 4kts
09-May-20 17:33 32.730432 -117.176872 295 26ft 3kts
09-May-20 17:34 32.738935 -117.210335 293 750ft 179kts
09-May-20 17:35 32.769020 -117.260060 303 3650ft 198kts
09-May-20 17:36 32.805910 -117.326914 306 5720ft 271kts
09-May-20 17:37 32.852101 -117.399329 306 8832ft 284kts
09-May-20 17:38 32.902280 -117.477547 307 11045ft 324kts
09-May-20 17:40 32.960412 -117.568067 306 13098ft 354kts
09-May-20 17:41 33.020845 -117.662500 305 15375ft 366kts
09-May-20 17:42 33.089167 -117.755356 317 17356ft 382kts
09-May-20 17:43 33.171483 -117.839048 317 19178ft 394kts
09-May-20 17:44 33.256820 -117.923413 318 20905ft 403kts
09-May-20 17:45 33.344527 -118.008983 318 22469ft 412kts
09-May-20 17:46 33.434007 -118.096638 318 23901ft 420kts
09-May-20 17:47 33.525021 -118.186056 318 25240ft 427kts
09-May-20 17:48 33.625925 -118.261892 342 26436ft 441kts
09-May-20 17:49 33.743287 -118.233506 37 27455ft 460kts
09-May-20 17:50 33.830679 -118.122365 47 28413ft 469kts
09-May-20 17:51 33.917961 -118.006329 47 29307ft 475kts
09-May-20 17:52 34.006894 -117.887777 46 30119ft 482kts
09-May-20 17:53 34.096076 -117.767691 49 31132ft 482kts
09-May-20 17:54 34.180846 -117.643812 49 32149ft 480kts
09-May-20 17:55 34.265646 -117.519524 49 32984ft 478kts
09-May-20 17:55 34.335872 -117.416267 49 32998ft 476kts
09-May-20 17:57 34.433674 -117.271945 49 33001ft 477kts
09-May-20 17:58 34.517670 -117.147526 49 33010ft 477kts
09-May-20 17:59 34.601539 -117.022863 49 32960ft 478kts
09-May-20 17:59 34.671157 -116.919048 50 31125ft 482kts
09-May-20 18:00 34.753241 -116.796294 50 29920ft 453kts
09-May-20 18:01 34.830740 -116.679973 50 28969ft 439kts
09-May-20 18:03 34.935474 -116.565995 36 27467ft 428kts
09-May-20 18:03 35.012359 -116.491413 37 25913ft 420kts
09-May-20 18:04 35.102185 -116.403196 41 24059ft 410kts
09-May-20 18:05 35.181113 -116.305270 45 22387ft 403kts
09-May-20 18:06 35.257837 -116.209026 45 20834ft 390kts
09-May-20 18:07 35.332562 -116.114989 45 19362ft 381kts
09-May-20 18:08 35.405376 -116.023101 45 17928ft 372kts
09-May-20 18:09 35.476350 -115.933289 45 16536ft 364kts
09-May-20 18:10 35.545697 -115.845303 45 15182ft 354kts
09-May-20 18:11 35.612969 -115.759731 45 13871ft 343kts
09-May-20 18:12 35.676847 -115.678288 45 13079ft 311kts
09-May-20 18:13 35.737074 -115.601285 45 13040ft 313kts
09-May-20 18:14 35.817946 -115.571835 1 13029ft 327kts
09-May-20 18:15 35.909598 -115.566887 1 12523ft 332kts
09-May-20 18:16 35.985815 -115.517462 68 11774ft 337kts
09-May-20 18:17 36.018967 -115.413194 68 11176ft 306kts
09-May-20 18:18 36.026887 -115.316508 96 10324ft 281kts
09-May-20 18:19 36.019937 -115.221589 96 9243ft 274kts
09-May-20 18:20 36.013568 -115.129437 96 8249ft 262kts
09-May-20 18:21 36.007911 -115.042078 95 7801ft 254kts
09-May-20 18:22 36.001621 -114.955453 97 6662ft 253kts
09-May-20 18:23 36.020115 -114.881664 10 5723ft 243kts
09-May-20 18:24 36.058433 -114.923991 285 4953ft 179kts
09-May-20 18:25 36.070383 -114.977806 279 4563ft 151kts
09-May-20 18:26 36.074190 -115.030651 264 3571ft 151kts
09-May-20 18:27 36.073721 -115.079203 266 2789ft 142kts
09-May-20 18:28 36.073718 -115.126875 266 2061ft 130kts
09-May-20 18:29 36.073968 -115.144111 290 2099ft 0kts
09-May-20 18:30 36.074062 -115.144421 291 2100ft 5kts
09-May-20 18:31 36.075446 -115.146556 355 2105ft 16kts
09-May-20 18:32 36.078614 -115.148394 273 2105ft 9kts
09-May-20 18:33 36.079110 -115.151092 347 2115ft 6kts
09-May-20 18:34 36.082301 -115.150724 348 2107ft 0kts

Navigation Log

Ident Type
Flight plan parsing failed, navigation log unavailable